createdAt,value
2022-09-03T00:00:06.036Z,101310.91
2022-09-03T00:02:31.803Z,101302.91
2022-09-03T00:05:01.245Z,101329.03
2022-09-03T00:07:15.905Z,101309.25
2022-09-03T00:09:28.560Z,101305.81
2022-09-03T00:12:00.001Z,101328.16
2022-09-03T00:14:20.219Z,101308.63
2022-09-03T00:16:27.300Z,101247.75
2022-09-03T00:18:33.763Z,101323.28
2022-09-03T00:20:38.923Z,101318.78
2022-09-03T00:22:48.852Z,101323.47
2022-09-03T00:24:52.779Z,101278.34
2022-09-03T00:27:01.929Z,101276.25
2022-09-03T00:29:17.269Z,101283.53
2022-09-03T00:31:51.808Z,101272.09
2022-09-03T00:34:27.517Z,101325.41
2022-09-03T00:36:44.067Z,101329.34
2022-09-03T00:38:47.089Z,101302.00
2022-09-03T00:41:21.527Z,101323.66
2022-09-03T00:44:06.954Z,101319.94
2022-09-03T00:46:27.286Z,101303.78
2022-09-03T00:49:05.477Z,101290.50
2022-09-03T00:51:25.605Z,101290.97
2022-09-03T00:54:00.221Z,101315.56
2022-09-03T00:56:44.784Z,101313.06
2022-09-03T00:59:13.331Z,101312.75
2022-09-03T01:01:38.903Z,101311.72
2022-09-03T01:04:22.415Z,101306.34
2022-09-03T01:06:59.084Z,101314.50
2022-09-03T01:09:23.673Z,101281.19
2022-09-03T01:12:36.178Z,101289.13
2022-09-03T01:15:09.520Z,101298.81
2022-09-03T01:17:34.941Z,101287.63
2022-09-03T01:20:33.326Z,101303.06
2022-09-03T01:23:09.374Z,101298.25
2022-09-03T01:25:39.152Z,101299.78
2022-09-03T01:27:58.608Z,101301.06
2022-09-03T01:30:18.355Z,101256.53
2022-09-03T01:32:49.161Z,101276.31
2022-09-03T01:35:29.533Z,101296.84
2022-09-03T01:37:52.044Z,101298.19
2022-09-03T01:40:33.825Z,101309.00
2022-09-03T01:43:12.290Z,101307.41
2022-09-03T01:45:28.049Z,101298.34
2022-09-03T01:48:19.538Z,101301.22
2022-09-03T01:51:00.308Z,101292.72
2022-09-03T01:53:18.675Z,101300.91
2022-09-03T01:56:09.962Z,101291.59
2022-09-03T01:58:28.571Z,101277.44
2022-09-03T02:00:33.532Z,101295.84
2022-09-03T02:02:36.493Z,101269.16
2022-09-03T02:04:39.059Z,101229.38
2022-09-03T02:06:41.791Z,101270.94
2022-09-03T02:08:44.797Z,101256.50
2022-09-03T02:10:54.432Z,101281.28
2022-09-03T02:13:07.718Z,101238.72
2022-09-03T02:15:16.684Z,101277.66
2022-09-03T02:17:21.731Z,101202.53
2022-09-03T02:19:24.635Z,101229.22
2022-09-03T02:21:36.020Z,101283.75
2022-09-03T02:23:41.052Z,101259.72
2022-09-03T02:25:48.717Z,101273.47
2022-09-03T02:27:51.590Z,101297.38
2022-09-03T02:29:54.172Z,101260.66
2022-09-03T02:31:58.662Z,101294.06
2022-09-03T02:34:01.826Z,101283.56
2022-09-03T02:36:12.514Z,101260.09
2022-09-03T02:38:23.190Z,101297.03
2022-09-03T02:40:26.868Z,101206.94
2022-09-03T02:42:29.476Z,101253.00
2022-09-03T02:44:35.612Z,101201.66
2022-09-03T02:46:49.221Z,101296.97
2022-09-03T02:48:51.822Z,101240.00
2022-09-03T02:50:54.408Z,101110.38
2022-09-03T02:52:57.116Z,101249.41
2022-09-03T02:54:59.713Z,101266.50
2022-09-03T02:57:03.160Z,101293.31
2022-09-03T02:59:08.096Z,101263.41
2022-09-03T03:01:11.842Z,101272.50
2022-09-03T03:03:21.058Z,101277.44
2022-09-03T03:05:36.905Z,101285.88
2022-09-03T03:07:41.540Z,101247.63
2022-09-03T03:09:44.186Z,101184.50
2022-09-03T03:11:46.895Z,101297.16
2022-09-03T03:13:49.507Z,101244.50
2022-09-03T03:15:57.792Z,101300.03
2022-09-03T03:18:00.381Z,101234.06
2022-09-03T03:20:03.755Z,101243.22
2022-09-03T03:22:06.359Z,101213.47
2022-09-03T03:24:09.309Z,101288.94
2022-09-03T03:26:20.685Z,101283.31
2022-09-03T03:28:23.353Z,101234.59
2022-09-03T03:30:26.388Z,101309.13
2022-09-03T03:32:29.002Z,101275.94
2022-09-03T03:34:31.582Z,101198.44
2022-09-03T03:36:34.789Z,101281.69
2022-09-03T03:38:38.062Z,101294.50
2022-09-03T03:40:40.753Z,101208.41
2022-09-03T03:42:43.665Z,101115.22
2022-09-03T03:44:46.211Z,101253.28
2022-09-03T03:46:48.796Z,101284.88
2022-09-03T03:48:52.734Z,101296.25
2022-09-03T03:50:55.265Z,101220.09
2022-09-03T03:53:01.246Z,101302.41
2022-09-03T03:55:05.045Z,101267.06
2022-09-03T03:57:07.801Z,101269.78
2022-09-03T03:59:10.493Z,101245.06
2022-09-03T04:01:25.303Z,101305.91
2022-09-03T04:03:29.351Z,101279.22
2022-09-03T04:05:33.824Z,101247.63
2022-09-03T04:07:36.497Z,101264.13
2022-09-03T04:09:39.317Z,101255.31
2022-09-03T04:11:41.900Z,101278.56
2022-09-03T04:13:46.720Z,101299.06
2022-09-03T04:15:49.328Z,101238.13
2022-09-03T04:17:55.292Z,101230.25
2022-09-03T04:19:57.922Z,101245.13
2022-09-03T04:22:00.536Z,101275.16
2022-09-03T04:24:05.681Z,101285.72
2022-09-03T04:26:10.739Z,101239.63
2022-09-03T04:28:14.088Z,101293.03
2022-09-03T04:30:16.888Z,101298.19
2022-09-03T04:32:38.062Z,101308.06
2022-09-03T04:34:40.623Z,101250.88
2022-09-03T04:36:43.226Z,101207.56
2022-09-03T04:38:48.161Z,101288.56
2022-09-03T04:40:53.585Z,101298.06
2022-09-03T04:42:59.618Z,101293.34
2022-09-03T04:45:02.280Z,101242.50
2022-09-03T04:47:07.991Z,101274.69
2022-09-03T04:49:10.756Z,101189.72
2022-09-03T04:51:16.830Z,101270.78
2022-09-03T04:53:19.363Z,101266.19
2022-09-03T04:55:23.146Z,101271.34
2022-09-03T04:57:25.806Z,101132.75
2022-09-03T04:59:30.518Z,101265.72
2022-09-03T05:01:35.874Z,101289.56
2022-09-03T05:03:39.018Z,101313.28
2022-09-03T05:05:41.561Z,101274.41
2022-09-03T05:07:45.136Z,101241.63
2022-09-03T05:09:47.908Z,101301.38
2022-09-03T05:11:52.630Z,101289.13
2022-09-03T05:13:59.314Z,101241.22
2022-09-03T05:16:07.942Z,101316.06
2022-09-03T05:18:10.602Z,101246.47
2022-09-03T05:20:13.265Z,101247.44
2022-09-03T05:22:21.303Z,101291.88
2022-09-03T05:24:25.082Z,101199.56
2022-09-03T05:26:34.309Z,101269.13
2022-09-03T05:28:39.378Z,101272.44
2022-09-03T05:30:42.353Z,101304.41
2022-09-03T05:32:45.089Z,101281.84
2022-09-03T05:34:47.625Z,101274.78
2022-09-03T05:36:50.262Z,101292.81
2022-09-03T05:38:56.400Z,101317.47
2022-09-03T05:41:03.145Z,101317.88
2022-09-03T05:43:08.499Z,101184.72
2022-09-03T05:45:11.569Z,101200.94
2022-09-03T05:47:14.117Z,101286.13
2022-09-03T05:49:16.787Z,101229.91
2022-09-03T05:51:19.729Z,101283.88
2022-09-03T05:53:23.197Z,101211.97
2022-09-03T05:55:25.774Z,101283.13
2022-09-03T05:57:29.697Z,101171.44
2022-09-03T05:59:32.304Z,101210.75
2022-09-03T06:01:38.114Z,101217.31
2022-09-03T06:03:43.072Z,101309.19
2022-09-03T06:05:55.139Z,101163.63
2022-09-03T06:07:57.841Z,101263.72
2022-09-03T06:10:00.454Z,101229.22
2022-09-03T06:12:03.980Z,101298.59
2022-09-03T06:14:12.342Z,101294.44
2022-09-03T06:16:15.762Z,101278.78
2022-09-03T06:18:18.437Z,101297.84
2022-09-03T06:20:21.018Z,101222.94
2022-09-03T06:22:25.476Z,101311.84
2022-09-03T06:24:29.887Z,101286.78
2022-09-03T06:26:32.476Z,101278.06
2022-09-03T06:28:38.063Z,101326.63
2022-09-03T06:30:41.767Z,101286.72
2022-09-03T06:32:47.995Z,101288.13
2022-09-03T06:34:50.557Z,101317.16
2022-09-03T06:36:54.651Z,101280.53
2022-09-03T06:38:58.575Z,101318.91
2022-09-03T06:41:04.305Z,101293.41
2022-09-03T06:43:06.861Z,101306.16
2022-09-03T06:45:12.252Z,101260.09
2022-09-03T06:47:14.927Z,101298.78
2022-09-03T06:49:17.690Z,101280.19
2022-09-03T06:51:28.529Z,101267.66
2022-09-03T06:53:37.709Z,101291.41
2022-09-03T06:55:40.653Z,101285.63
2022-09-03T06:57:43.216Z,101298.97
2022-09-03T06:59:45.789Z,101253.16
2022-09-03T07:01:48.412Z,101287.56
2022-09-03T07:03:58.129Z,101272.44
2022-09-03T07:06:06.715Z,101317.44
2022-09-03T07:08:10.493Z,101318.72
2022-09-03T07:10:16.244Z,101275.09
2022-09-03T07:12:19.351Z,101285.28
2022-09-03T07:14:22.232Z,101311.97
2022-09-03T07:16:37.155Z,101281.16
2022-09-03T07:18:41.386Z,101283.34
2022-09-03T07:20:43.930Z,101236.25
2022-09-03T07:22:46.537Z,101216.88
2022-09-03T07:24:52.066Z,101206.22
2022-09-03T07:26:55.075Z,101276.44
2022-09-03T07:28:59.197Z,101315.84
2022-09-03T07:31:12.426Z,101301.22
2022-09-03T07:33:16.189Z,101311.59
2022-09-03T07:35:19.852Z,101278.59
2022-09-03T07:37:24.299Z,101216.34
2022-09-03T07:39:26.988Z,101292.41
2022-09-03T07:41:33.039Z,101232.31
2022-09-03T07:43:40.164Z,101287.66
2022-09-03T07:45:44.154Z,101279.13
2022-09-03T07:47:49.582Z,101265.03
2022-09-03T07:49:53.292Z,101296.69
2022-09-03T07:51:55.851Z,101259.16
2022-09-03T07:54:06.034Z,101316.88
2022-09-03T07:56:10.949Z,101322.25
2022-09-03T07:58:14.308Z,101291.34
2022-09-03T08:00:17.852Z,101326.78
2022-09-03T08:02:20.408Z,101302.56
2022-09-03T08:04:23.017Z,101294.53
2022-09-03T08:06:28.536Z,101171.94
2022-09-03T08:08:35.695Z,101320.28
2022-09-03T08:10:38.857Z,101268.41
2022-09-03T08:12:41.439Z,101236.50
2022-09-03T08:14:43.978Z,101234.41
2022-09-03T08:16:50.672Z,101323.19
2022-09-03T08:18:53.757Z,101218.94
2022-09-03T08:21:00.110Z,101223.44
2022-09-03T08:23:03.857Z,101307.19
2022-09-03T08:25:07.110Z,101290.94
2022-09-03T08:27:14.305Z,101298.13
2022-09-03T08:29:16.891Z,101289.31
2022-09-03T08:31:22.708Z,101294.91
2022-09-03T08:33:37.283Z,101191.50
2022-09-03T08:35:40.048Z,101281.56
2022-09-03T08:37:42.798Z,101302.81
2022-09-03T08:39:46.052Z,101204.16
2022-09-03T08:41:51.579Z,101300.03
2022-09-03T08:44:06.868Z,101302.94
2022-09-03T08:46:10.134Z,101259.81
2022-09-03T08:48:25.706Z,101248.84
2022-09-03T08:50:33.120Z,101253.06
2022-09-03T08:52:50.368Z,101287.97
2022-09-03T08:55:02.448Z,101257.03
2022-09-03T08:57:07.716Z,101275.53
2022-09-03T08:59:10.541Z,101290.31
2022-09-03T09:01:34.317Z,101247.91
2022-09-03T09:03:56.794Z,101255.19
2022-09-03T09:06:26.804Z,101285.97
2022-09-03T09:09:15.176Z,101272.88
2022-09-03T09:12:10.808Z,101264.75
2022-09-03T09:14:47.041Z,101265.97
2022-09-03T09:17:17.761Z,101269.13
2022-09-03T09:19:39.188Z,101267.16
2022-09-03T09:21:53.006Z,101280.09
2022-09-03T09:24:03.845Z,101272.69
2022-09-03T09:26:12.991Z,101237.28
2022-09-03T09:28:25.883Z,101220.41
2022-09-03T09:30:32.905Z,101264.94
2022-09-03T09:32:38.692Z,101231.88
2022-09-03T09:34:47.482Z,101239.41
2022-09-03T09:36:56.871Z,101223.28
2022-09-03T09:39:10.632Z,101259.19
2022-09-03T09:41:17.026Z,101277.81
2022-09-03T09:43:22.967Z,101237.78
2022-09-03T09:45:25.578Z,101208.44
2022-09-03T09:47:38.923Z,101245.09
2022-09-03T09:49:57.091Z,101236.78
2022-09-03T09:52:06.418Z,101228.16
2022-09-03T09:54:20.064Z,101233.53
2022-09-03T09:56:25.175Z,101234.69
2022-09-03T09:58:30.963Z,101249.44
2022-09-03T10:00:35.051Z,101194.41
2022-09-03T10:02:40.653Z,101241.25
2022-09-03T10:04:46.226Z,101203.72
2022-09-03T10:06:57.317Z,101106.66
2022-09-03T10:09:23.453Z,101217.44
2022-09-03T10:11:39.845Z,101153.44
2022-09-03T10:13:48.547Z,101137.53
2022-09-03T10:16:28.939Z,101223.31
2022-09-03T10:18:47.039Z,101183.59
2022-09-03T10:21:06.807Z,101154.53
2022-09-03T10:23:25.819Z,101196.81
2022-09-03T10:26:07.660Z,101217.97
2022-09-03T10:28:11.548Z,101188.66
2022-09-03T10:30:16.191Z,101197.38
2022-09-03T10:32:44.953Z,101180.78
2022-09-03T10:35:35.622Z,101220.50
2022-09-03T10:37:55.743Z,101209.19
2022-09-03T10:40:31.638Z,101197.97
2022-09-03T10:43:04.953Z,101222.81
2022-09-03T10:45:33.436Z,101210.28
2022-09-03T10:48:04.231Z,101150.72
2022-09-03T10:50:27.190Z,101195.84
2022-09-03T10:53:07.072Z,101194.38
2022-09-03T10:55:48.279Z,101188.38
2022-09-03T10:58:12.831Z,101212.00
2022-09-03T11:00:18.614Z,101174.06
2022-09-03T11:03:07.460Z,101201.81
2022-09-03T11:05:35.378Z,101178.41
2022-09-03T11:07:49.479Z,101184.97
2022-09-03T11:10:12.756Z,101157.97
2022-09-03T11:12:25.449Z,101153.00
2022-09-03T11:14:49.104Z,101198.09
2022-09-03T11:17:06.036Z,101123.97
2022-09-03T11:19:15.776Z,101170.72
2022-09-03T11:21:25.283Z,101174.25
2022-09-03T11:23:32.248Z,101164.63
2022-09-03T11:25:42.172Z,101176.94
2022-09-03T11:28:13.130Z,101124.03
2022-09-03T11:30:38.232Z,101155.97
2022-09-03T11:32:44.100Z,101172.56
2022-09-03T11:34:55.005Z,101165.31
2022-09-03T11:37:31.094Z,101192.44
2022-09-03T11:39:36.834Z,101162.72
2022-09-03T11:41:40.069Z,101143.31
2022-09-03T11:43:44.417Z,101151.56
2022-09-03T11:45:47.161Z,101046.38
2022-09-03T11:47:51.328Z,101160.72
2022-09-03T11:50:20.996Z,101072.00
2022-09-03T11:52:32.515Z,101088.41
2022-09-03T11:54:46.117Z,101164.53
2022-09-03T11:56:49.774Z,101132.31
2022-09-03T11:59:03.944Z,101161.84
2022-09-03T12:01:17.978Z,101142.94
2022-09-03T12:03:44.147Z,101130.03
2022-09-03T12:06:17.447Z,101139.53
2022-09-03T12:09:07.947Z,101143.50
2022-09-03T12:11:50.972Z,101145.44
2022-09-03T12:14:49.203Z,101144.16
2022-09-03T12:17:27.576Z,101116.84
2022-09-03T12:19:53.561Z,101139.69
2022-09-03T12:21:56.578Z,101041.34
2022-09-03T12:24:03.313Z,101058.22
2022-09-03T12:26:23.843Z,101141.19
2022-09-03T12:28:29.702Z,101139.38
2022-09-03T12:30:32.777Z,101109.69
2022-09-03T12:32:37.358Z,101106.31
2022-09-03T12:34:40.018Z,101135.84
2022-09-03T12:36:49.370Z,101096.56
2022-09-03T12:39:11.968Z,101119.59
2022-09-03T12:41:31.254Z,101083.69
2022-09-03T12:43:37.949Z,101029.56
2022-09-03T12:48:17.379Z,101109.69
2022-09-03T12:50:23.865Z,101119.59
2022-09-03T12:52:36.125Z,101088.47
2022-09-03T12:55:08.315Z,101121.13
2022-09-03T12:57:11.206Z,101098.69
2022-09-03T12:59:19.508Z,101082.41
2022-09-03T13:01:28.273Z,101110.19
2022-09-03T13:03:48.141Z,101080.41
2022-09-03T13:06:06.489Z,101094.19
2022-09-03T13:08:15.390Z,101099.69
2022-09-03T13:10:43.681Z,101108.28
2022-09-03T13:12:53.362Z,101024.31
2022-09-03T13:14:56.514Z,101064.38
2022-09-03T13:17:26.795Z,101067.66
2022-09-03T13:20:12.916Z,101105.63
2022-09-03T13:23:05.034Z,101084.59
2022-09-03T13:25:30.564Z,101070.72
2022-09-03T13:27:52.385Z,101091.34
2022-09-03T13:30:02.199Z,101106.72
2022-09-03T13:32:58.159Z,101101.78
2022-09-03T13:35:14.202Z,100979.28
2022-09-03T13:37:45.490Z,101094.75
2022-09-03T13:39:59.328Z,101056.47
2022-09-03T13:42:50.844Z,101031.88
2022-09-03T13:45:26.712Z,101086.13
2022-09-03T13:48:05.444Z,101053.50
2022-09-03T13:50:22.410Z,101073.94
2022-09-03T13:52:36.232Z,101083.41
2022-09-03T13:54:49.630Z,101053.69
2022-09-03T13:57:05.336Z,100999.81
2022-09-03T13:59:40.563Z,101059.75
2022-09-03T14:02:04.698Z,101078.53
2022-09-03T14:04:20.322Z,101079.78
2022-09-03T14:06:45.016Z,101074.19
2022-09-03T14:09:09.525Z,101075.25
2022-09-03T14:11:47.352Z,101058.53
2022-09-03T14:14:20.077Z,100978.03
2022-09-03T14:16:42.175Z,101036.13
2022-09-03T14:19:38.347Z,101064.44
2022-09-03T14:21:58.610Z,101020.50
2022-09-03T14:24:44.814Z,101053.16
2022-09-03T14:27:00.509Z,101032.38
2022-09-03T14:29:17.026Z,101000.78
2022-09-03T14:31:29.454Z,101061.06
2022-09-03T14:34:04.273Z,101065.25
2022-09-03T14:36:27.248Z,101035.94
2022-09-03T14:38:29.697Z,101063.50
2022-09-03T14:40:45.736Z,101070.13
2022-09-03T14:43:09.844Z,101069.16
2022-09-03T14:45:21.275Z,101062.50
2022-09-03T14:48:09.519Z,101064.81
2022-09-03T14:50:40.022Z,101073.41
2022-09-03T14:53:38.608Z,101068.78
2022-09-03T14:55:59.536Z,101061.50
2022-09-03T14:58:19.968Z,101030.63
2022-09-03T15:00:31.687Z,101064.22
2022-09-03T15:02:34.302Z,101059.34
2022-09-03T15:05:11.023Z,101047.00
2022-09-03T15:07:54.016Z,101048.91
2022-09-03T15:10:37.948Z,101005.78
2022-09-03T15:12:46.795Z,101014.03
2022-09-03T15:15:01.845Z,100976.78
2022-09-03T15:17:42.556Z,100997.41
2022-09-03T15:20:25.519Z,101051.69
2022-09-03T15:23:06.450Z,100991.72
2022-09-03T15:25:32.262Z,101054.66
2022-09-03T15:28:02.660Z,101064.56
2022-09-03T15:30:21.409Z,101052.50
2022-09-03T15:32:55.907Z,101066.69
2022-09-03T15:35:31.005Z,101058.75
2022-09-03T15:37:57.900Z,101038.53
2022-09-03T15:40:30.420Z,101007.28
2022-09-03T15:42:36.431Z,101064.16
2022-09-03T15:44:54.113Z,101043.72
2022-09-03T15:47:14.708Z,100997.91
2022-09-03T15:49:37.890Z,101041.63
2022-09-03T15:52:06.423Z,101052.47
2022-09-03T15:54:48.956Z,101056.81
2022-09-03T15:57:06.503Z,100984.88
2022-09-03T15:59:58.694Z,101028.22
2022-09-03T16:02:12.735Z,100957.31
2022-09-03T16:04:55.621Z,100967.53
2022-09-03T16:07:19.013Z,100971.94
2022-09-03T16:09:45.479Z,101054.13
2022-09-03T16:12:08.163Z,101054.53
2022-09-03T16:14:36.633Z,101041.19
2022-09-03T16:16:48.071Z,101061.09
2022-09-03T16:19:26.770Z,101043.56
2022-09-03T16:22:06.059Z,101051.19
2022-09-03T16:24:25.209Z,101053.56
2022-09-03T16:26:50.533Z,101059.91
2022-09-03T16:29:00.294Z,101059.31
2022-09-03T16:32:18.171Z,101061.38
2022-09-03T16:34:40.238Z,101045.63
2022-09-03T16:37:13.457Z,101074.38
2022-09-03T16:39:55.675Z,101064.88
2022-09-03T16:42:09.881Z,101066.28
2022-09-03T16:44:52.975Z,101065.66
2022-09-03T16:47:31.353Z,101043.28
2022-09-03T16:50:08.094Z,101067.06
2022-09-03T16:52:19.941Z,101050.22
2022-09-03T16:54:38.177Z,100929.69
2022-09-03T16:57:34.228Z,101073.25
2022-09-03T17:00:00.956Z,101070.19
2022-09-03T17:02:41.691Z,101063.53
2022-09-03T17:05:29.625Z,101009.94
2022-09-03T17:07:57.015Z,101066.63
2022-09-03T17:10:27.050Z,101034.66
2022-09-03T17:12:49.296Z,101007.28
2022-09-03T17:15:45.823Z,101061.53
2022-09-03T17:18:07.028Z,100954.38
2022-09-03T17:20:17.495Z,100983.53
2022-09-03T17:22:28.530Z,101070.63
2022-09-03T17:25:06.695Z,101061.50
2022-09-03T17:27:42.716Z,101071.91
2022-09-03T17:30:08.819Z,101033.88
2022-09-03T17:32:23.510Z,101071.91
2022-09-03T17:34:46.181Z,101080.19
2022-09-03T17:37:47.523Z,101080.50
2022-09-03T17:40:20.996Z,101077.69
2022-09-03T17:43:17.240Z,101076.69
2022-09-03T17:45:57.294Z,101085.78
2022-09-03T17:48:53.841Z,101076.06
2022-09-03T17:51:36.072Z,101092.13
2022-09-03T17:53:39.633Z,101094.47
2022-09-03T17:55:56.641Z,101098.22
2022-09-03T17:58:19.229Z,101099.34
2022-09-03T18:00:35.113Z,101030.53
2022-09-03T18:03:06.558Z,101032.25
2022-09-03T18:05:47.173Z,101081.50
2022-09-03T18:08:20.711Z,101101.16
2022-09-03T18:11:02.632Z,101096.78
2022-09-03T18:13:31.867Z,101051.56
2022-09-03T18:16:27.424Z,101112.00
2022-09-03T18:18:37.093Z,101073.44
2022-09-03T18:21:30.835Z,101112.38
2022-09-03T18:24:24.708Z,101125.81
2022-09-03T18:26:52.357Z,101113.09
2022-09-03T18:29:32.041Z,101111.78
2022-09-03T18:31:53.345Z,101103.06
2022-09-03T18:34:14.672Z,101038.72
2022-09-03T18:36:35.857Z,101057.94
2022-09-03T18:38:58.319Z,101125.94
2022-09-03T18:41:54.764Z,101120.75
2022-09-03T18:44:36.934Z,101053.22
2022-09-03T18:48:09.042Z,101137.63
2022-09-03T18:50:57.706Z,101127.63
2022-09-03T18:53:30.012Z,101102.25
2022-09-03T18:56:33.048Z,101137.88
2022-09-03T18:59:10.572Z,101134.19
2022-09-03T19:01:51.618Z,101132.94
2022-09-03T19:04:38.426Z,101131.91
2022-09-03T19:07:23.030Z,101139.19
2022-09-03T19:10:14.807Z,101125.69
2022-09-03T19:12:59.400Z,101111.38
2022-09-03T19:15:37.248Z,101084.84
2022-09-03T19:18:17.105Z,101099.25
2022-09-03T19:20:54.492Z,101127.16
2022-09-03T19:23:15.389Z,101138.88
2022-09-03T19:25:36.872Z,101101.22
2022-09-03T19:28:10.184Z,101147.16
2022-09-03T19:30:50.346Z,101146.41
2022-09-03T19:33:26.426Z,101145.44
2022-09-03T19:36:03.976Z,101147.03
2022-09-03T19:38:34.834Z,101146.75
2022-09-03T19:41:22.454Z,101150.25
2022-09-03T19:43:55.810Z,101146.22
2022-09-03T19:46:54.490Z,101133.34
2022-09-03T19:50:01.379Z,101115.84
2022-09-03T19:53:02.360Z,101134.53
2022-09-03T19:55:23.998Z,101049.66
2022-09-03T19:57:48.641Z,101148.84
2022-09-03T20:00:11.455Z,101142.03
2022-09-03T20:02:35.598Z,101126.72
2022-09-03T20:05:06.972Z,101160.19
2022-09-03T20:07:29.395Z,101005.28
2022-09-03T20:09:59.038Z,101112.00
2022-09-03T20:12:09.219Z,101157.66
2022-09-03T20:14:16.377Z,101112.50
2022-09-03T20:17:09.626Z,101162.94
2022-09-03T20:19:27.862Z,101164.06
2022-09-03T20:21:39.467Z,101175.56
2022-09-03T20:23:59.419Z,101141.59
2022-09-03T20:26:24.838Z,101172.66
2022-09-03T20:28:58.726Z,101171.09
2022-09-03T20:31:22.255Z,101133.94
2022-09-03T20:33:45.156Z,101104.22
2022-09-03T20:35:56.613Z,101181.75
2022-09-03T20:38:19.976Z,101186.59
2022-09-03T20:40:52.852Z,101148.28
2022-09-03T20:43:20.381Z,101174.88
2022-09-03T20:45:57.514Z,101125.03
2022-09-03T20:48:10.937Z,101146.81
2022-09-03T20:50:43.672Z,101187.44
2022-09-03T20:53:07.685Z,101191.72
2022-09-03T20:55:21.538Z,101167.78
2022-09-03T20:57:47.228Z,101192.53
2022-09-03T21:00:15.102Z,101182.66
2022-09-03T21:02:37.920Z,101192.53
2022-09-03T21:05:22.956Z,101188.56
2022-09-03T21:08:20.554Z,101189.66
2022-09-03T21:10:57.780Z,101186.47
2022-09-03T21:13:14.060Z,101166.50
2022-09-03T21:16:09.779Z,101104.13
2022-09-03T21:18:39.492Z,101185.69
2022-09-03T21:21:36.396Z,101183.31
2022-09-03T21:23:46.472Z,101191.59
2022-09-03T21:26:16.120Z,101197.47
2022-09-03T21:28:38.504Z,101187.38
2022-09-03T21:30:46.498Z,101131.06
2022-09-03T21:33:01.392Z,101182.13
2022-09-03T21:35:25.016Z,101203.91
2022-09-03T21:37:28.245Z,101093.41
2022-09-03T21:39:48.629Z,101199.69
2022-09-03T21:42:24.644Z,101172.84
2022-09-03T21:44:54.619Z,101201.84
2022-09-03T21:47:03.051Z,101183.22
2022-09-03T21:49:12.560Z,101088.13
2022-09-03T21:51:46.865Z,101186.69
2022-09-03T21:54:13.101Z,101199.47
2022-09-03T21:56:58.682Z,101214.13
2022-09-03T21:59:31.321Z,101176.09
2022-09-03T22:01:54.304Z,101226.38
2022-09-03T22:03:57.098Z,101214.66
2022-09-03T22:06:28.800Z,101101.47
2022-09-03T22:08:49.238Z,101214.69
2022-09-03T22:10:51.742Z,101225.31
2022-09-03T22:13:14.792Z,101231.19
2022-09-03T22:15:21.198Z,101198.72
2022-09-03T22:17:55.973Z,101197.66
2022-09-03T22:19:58.607Z,101232.78
2022-09-03T22:22:03.066Z,101210.44
2022-09-03T22:24:23.020Z,101221.09
2022-09-03T22:26:49.207Z,101217.38
2022-09-03T22:29:15.364Z,101222.69
2022-09-03T22:31:42.393Z,101218.94
2022-09-03T22:34:20.779Z,101201.41
2022-09-03T22:36:35.175Z,101217.63
2022-09-03T22:39:07.129Z,101226.94
2022-09-03T22:41:36.990Z,101230.94
2022-09-03T22:43:53.645Z,101211.81
2022-09-03T22:46:04.836Z,101178.59
2022-09-03T22:48:48.562Z,101239.19
2022-09-03T22:50:59.243Z,101240.53
2022-09-03T22:53:33.917Z,101239.47
2022-09-03T22:55:41.536Z,101152.50
2022-09-03T22:58:07.209Z,101235.22
2022-09-03T23:00:12.218Z,101238.69
2022-09-03T23:02:28.588Z,101232.28
2022-09-03T23:05:06.361Z,101227.00
2022-09-03T23:07:27.410Z,101188.09
2022-09-03T23:09:36.559Z,101249.59
2022-09-03T23:11:50.323Z,101249.31
2022-09-03T23:14:09.839Z,101244.78
2022-09-03T23:16:52.862Z,101150.31
2022-09-03T23:18:57.440Z,101258.63
2022-09-03T23:21:22.175Z,101265.25
2022-09-03T23:23:39.235Z,101246.59
2022-09-03T23:26:23.560Z,101127.94
2022-09-03T23:28:38.257Z,101244.44
2022-09-03T23:30:41.340Z,101155.81
2022-09-03T23:32:44.046Z,101255.59
2022-09-03T23:34:46.573Z,101252.69
2022-09-03T23:37:32.339Z,101262.50
2022-09-03T23:40:11.868Z,101250.25
2022-09-03T23:42:42.703Z,101233.69
2022-09-03T23:45:18.814Z,101262.19
2022-09-03T23:47:53.679Z,101261.38
2022-09-03T23:50:16.871Z,101264.53
2022-09-03T23:52:35.354Z,101261.59
2022-09-03T23:54:49.849Z,101226.72
2022-09-03T23:57:29.996Z,101258.69
2022-09-03T23:59:53.865Z,101259.72
